sensor_id;sensor_type;location;lat;lon;timestamp;temperature;humidity
37240;DHT22;23130;48.760;9.178;2023-08-21T00:00:57;23.90;99.90
37240;DHT22;23130;48.760;9.178;2023-08-21T00:03:23;23.80;99.90
37240;DHT22;23130;48.760;9.178;2023-08-21T00:05:50;23.70;99.90
37240;DHT22;23130;48.760;9.178;2023-08-21T00:08:15;23.70;99.90
37240;DHT22;23130;48.760;9.178;2023-08-21T00:10:41;23.70;99.90
37240;DHT22;23130;48.760;9.178;2023-08-21T00:13:08;23.70;99.90
37240;DHT22;23130;48.760;9.178;2023-08-21T00:15:34;23.60;99.90
37240;DHT22;23130;48.760;9.178;2023-08-21T00:17:59;23.60;99.90
37240;DHT22;23130;48.760;9.178;2023-08-21T00:20:26;23.60;99.90
37240;DHT22;23130;48.760;9.178;2023-08-21T00:22:52;23.60;99.90
37240;DHT22;23130;48.760;9.178;2023-08-21T00:25:20;23.60;99.90
37240;DHT22;23130;48.760;9.178;2023-08-21T00:27:46;23.60;99.90
37240;DHT22;23130;48.760;9.178;2023-08-21T00:30:12;23.60;99.90
37240;DHT22;23130;48.760;9.178;2023-08-21T00:32:40;23.60;99.90
37240;DHT22;23130;48.760;9.178;2023-08-21T00:35:07;23.50;99.90
37240;DHT22;23130;48.760;9.178;2023-08-21T00:37:35;23.50;99.90
37240;DHT22;23130;48.760;9.178;2023-08-21T00:40:02;23.50;99.90
37240;DHT22;23130;48.760;9.178;2023-08-21T00:42:27;23.50;99.90
37240;DHT22;23130;48.760;9.178;2023-08-21T00:44:53;23.50;99.90
37240;DHT22;23130;48.760;9.178;2023-08-21T00:47:19;23.40;99.90
37240;DHT22;23130;48.760;9.178;2023-08-21T00:49:45;23.40;99.90
37240;DHT22;23130;48.760;9.178;2023-08-21T00:52:12;23.30;99.90
37240;DHT22;23130;48.760;9.178;2023-08-21T00:54:38;23.30;99.90
37240;DHT22;23130;48.760;9.178;2023-08-21T00:57:06;23.30;99.90
37240;DHT22;23130;48.760;9.178;2023-08-21T00:59:33;23.30;99.90
37240;DHT22;23130;48.760;9.178;2023-08-21T01:02:00;23.30;99.90
37240;DHT22;23130;48.760;9.178;2023-08-21T01:04:25;23.30;99.90
37240;DHT22;23130;48.760;9.178;2023-08-21T01:06:52;23.30;99.90
37240;DHT22;23130;48.760;9.178;2023-08-21T01:09:29;23.30;99.90
37240;DHT22;23130;48.760;9.178;2023-08-21T01:15:07;23.20;99.90
37240;DHT22;23130;48.760;9.178;2023-08-21T01:17:36;23.10;99.90
37240;DHT22;23130;48.760;9.178;2023-08-21T01:20:02;23.10;99.90
37240;DHT22;23130;48.760;9.178;2023-08-21T01:22:38;23.10;99.90
37240;DHT22;23130;48.760;9.178;2023-08-21T01:25:07;23.00;99.90
37240;DHT22;23130;48.760;9.178;2023-08-21T01:27:34;23.00;99.90
37240;DHT22;23130;48.760;9.178;2023-08-21T01:30:01;23.00;99.90
37240;DHT22;23130;48.760;9.178;2023-08-21T01:35:20;22.90;99.90
37240;DHT22;23130;48.760;9.178;2023-08-21T01:37:46;22.90;99.90
37240;DHT22;23130;48.760;9.178;2023-08-21T01:40:12;22.90;99.90
37240;DHT22;23130;48.760;9.178;2023-08-21T01:42:37;22.90;99.90
37240;DHT22;23130;48.760;9.178;2023-08-21T01:45:03;22.80;99.90
37240;DHT22;23130;48.760;9.178;2023-08-21T01:47:29;22.80;99.90
37240;DHT22;23130;48.760;9.178;2023-08-21T01:49:55;22.80;99.90
37240;DHT22;23130;48.760;9.178;2023-08-21T01:52:21;22.70;99.90
37240;DHT22;23130;48.760;9.178;2023-08-21T01:54:49;22.70;99.90
37240;DHT22;23130;48.760;9.178;2023-08-21T01:57:16;22.70;99.90
37240;DHT22;23130;48.760;9.178;2023-08-21T01:59:44;22.60;99.90
37240;DHT22;23130;48.760;9.178;2023-08-21T02:02:10;22.60;99.90
37240;DHT22;23130;48.760;9.178;2023-08-21T02:04:35;22.60;99.90
37240;DHT22;23130;48.760;9.178;2023-08-21T02:07:01;22.60;99.90
37240;DHT22;23130;48.760;9.178;2023-08-21T02:09:27;22.50;99.90
37240;DHT22;23130;48.760;9.178;2023-08-21T02:11:54;22.50;99.90
37240;DHT22;23130;48.760;9.178;2023-08-21T02:14:20;22.50;99.90
37240;DHT22;23130;48.760;9.178;2023-08-21T02:16:47;22.40;99.90
37240;DHT22;23130;48.760;9.178;2023-08-21T02:19:14;22.40;99.90
37240;DHT22;23130;48.760;9.178;2023-08-21T02:21:39;22.40;99.90
37240;DHT22;23130;48.760;9.178;2023-08-21T02:24:05;22.40;99.90
37240;DHT22;23130;48.760;9.178;2023-08-21T02:26:31;22.30;99.90
37240;DHT22;23130;48.760;9.178;2023-08-21T02:28:57;22.20;99.90
37240;DHT22;23130;48.760;9.178;2023-08-21T02:31:25;22.20;99.90
37240;DHT22;23130;48.760;9.178;2023-08-21T02:33:50;22.10;99.90
37240;DHT22;23130;48.760;9.178;2023-08-21T02:36:16;22.00;99.90
37240;DHT22;23130;48.760;9.178;2023-08-21T02:38:42;22.00;99.90
37240;DHT22;23130;48.760;9.178;2023-08-21T02:41:09;22.00;99.90
37240;DHT22;23130;48.760;9.178;2023-08-21T02:43:34;21.90;99.90
37240;DHT22;23130;48.760;9.178;2023-08-21T02:46:01;21.90;99.90
37240;DHT22;23130;48.760;9.178;2023-08-21T02:48:28;21.80;99.90
37240;DHT22;23130;48.760;9.178;2023-08-21T02:50:53;21.80;99.90
37240;DHT22;23130;48.760;9.178;2023-08-21T02:53:19;21.80;99.90
37240;DHT22;23130;48.760;9.178;2023-08-21T02:55:45;21.70;99.90
37240;DHT22;23130;48.760;9.178;2023-08-21T02:58:11;21.70;99.90
37240;DHT22;23130;48.760;9.178;2023-08-21T03:00:37;21.60;99.90
37240;DHT22;23130;48.760;9.178;2023-08-21T03:03:04;21.60;99.90
37240;DHT22;23130;48.760;9.178;2023-08-21T03:05:31;21.50;99.90
37240;DHT22;23130;48.760;9.178;2023-08-21T03:07:58;21.50;99.90
37240;DHT22;23130;48.760;9.178;2023-08-21T03:10:23;21.40;99.90
37240;DHT22;23130;48.760;9.178;2023-08-21T03:12:49;21.40;99.90
37240;DHT22;23130;48.760;9.178;2023-08-21T03:15:15;21.50;99.90
37240;DHT22;23130;48.760;9.178;2023-08-21T03:17:41;21.50;99.90
37240;DHT22;23130;48.760;9.178;2023-08-21T03:20:09;21.50;99.90
37240;DHT22;23130;48.760;9.178;2023-08-21T03:22:34;21.50;99.90
37240;DHT22;23130;48.760;9.178;2023-08-21T03:25:00;21.40;99.90
37240;DHT22;23130;48.760;9.178;2023-08-21T03:27:27;21.40;99.90
37240;DHT22;23130;48.760;9.178;2023-08-21T03:29:52;21.50;99.90
37240;DHT22;23130;48.760;9.178;2023-08-21T03:32:18;21.50;99.90
37240;DHT22;23130;48.760;9.178;2023-08-21T03:34:44;21.40;99.90
37240;DHT22;23130;48.760;9.178;2023-08-21T03:37:10;21.40;99.90
37240;DHT22;23130;48.760;9.178;2023-08-21T03:39:37;21.40;99.90
37240;DHT22;23130;48.760;9.178;2023-08-21T03:42:03;21.40;99.90
37240;DHT22;23130;48.760;9.178;2023-08-21T03:44:28;21.30;99.90
37240;DHT22;23130;48.760;9.178;2023-08-21T03:46:56;21.20;99.90
37240;DHT22;23130;48.760;9.178;2023-08-21T03:49:23;21.20;99.90
37240;DHT22;23130;48.760;9.178;2023-08-21T03:51:48;21.10;99.90
37240;DHT22;23130;48.760;9.178;2023-08-21T03:54:15;21.10;99.90
37240;DHT22;23130;48.760;9.178;2023-08-21T03:56:41;21.10;99.90
37240;DHT22;23130;48.760;9.178;2023-08-21T03:59:09;21.10;99.90
37240;DHT22;23130;48.760;9.178;2023-08-21T04:01:34;21.00;99.90
37240;DHT22;23130;48.760;9.178;2023-08-21T04:04:00;21.00;99.90
37240;DHT22;23130;48.760;9.178;2023-08-21T04:06:26;21.00;99.90
37240;DHT22;23130;48.760;9.178;2023-08-21T04:08:52;21.00;99.90
37240;DHT22;23130;48.760;9.178;2023-08-21T04:11:18;20.90;99.90
37240;DHT22;23130;48.760;9.178;2023-08-21T04:13:43;20.90;99.90
37240;DHT22;23130;48.760;9.178;2023-08-21T04:16:09;20.90;99.90
37240;DHT22;23130;48.760;9.178;2023-08-21T04:18:36;21.00;99.90
37240;DHT22;23130;48.760;9.178;2023-08-21T04:21:04;21.00;99.90
37240;DHT22;23130;48.760;9.178;2023-08-21T04:23:30;21.00;99.90
37240;DHT22;23130;48.760;9.178;2023-08-21T04:26:02;21.00;99.90
37240;DHT22;23130;48.760;9.178;2023-08-21T04:28:32;21.00;99.90
37240;DHT22;23130;48.760;9.178;2023-08-21T04:33:34;21.00;99.90
37240;DHT22;23130;48.760;9.178;2023-08-21T04:36:00;21.00;99.90
37240;DHT22;23130;48.760;9.178;2023-08-21T04:38:26;21.10;99.90
37240;DHT22;23130;48.760;9.178;2023-08-21T04:40:53;21.10;99.90
37240;DHT22;23130;48.760;9.178;2023-08-21T04:43:18;21.20;99.90
37240;DHT22;23130;48.760;9.178;2023-08-21T04:45:48;21.30;99.90
37240;DHT22;23130;48.760;9.178;2023-08-21T04:48:15;21.30;99.90
37240;DHT22;23130;48.760;9.178;2023-08-21T04:50:42;21.50;99.90
37240;DHT22;23130;48.760;9.178;2023-08-21T04:53:09;21.50;99.90
37240;DHT22;23130;48.760;9.178;2023-08-21T04:55:35;21.60;99.90
37240;DHT22;23130;48.760;9.178;2023-08-21T04:58:02;21.70;99.90
37240;DHT22;23130;48.760;9.178;2023-08-21T05:00:28;21.80;99.90
37240;DHT22;23130;48.760;9.178;2023-08-21T05:02:54;21.90;99.90
37240;DHT22;23130;48.760;9.178;2023-08-21T05:05:19;22.00;99.90
37240;DHT22;23130;48.760;9.178;2023-08-21T05:07:46;22.10;99.90
37240;DHT22;23130;48.760;9.178;2023-08-21T05:10:11;22.20;99.90
37240;DHT22;23130;48.760;9.178;2023-08-21T05:12:39;22.30;99.90
37240;DHT22;23130;48.760;9.178;2023-08-21T05:15:06;22.40;99.90
37240;DHT22;23130;48.760;9.178;2023-08-21T05:17:31;22.50;99.90
37240;DHT22;23130;48.760;9.178;2023-08-21T05:19:58;22.70;99.90
37240;DHT22;23130;48.760;9.178;2023-08-21T05:22:24;22.70;99.90
37240;DHT22;23130;48.760;9.178;2023-08-21T05:24:51;22.80;99.90
37240;DHT22;23130;48.760;9.178;2023-08-21T05:27:16;23.40;99.90
37240;DHT22;23130;48.760;9.178;2023-08-21T05:29:46;24.40;99.90
37240;DHT22;23130;48.760;9.178;2023-08-21T05:32:11;25.60;99.90
37240;DHT22;23130;48.760;9.178;2023-08-21T05:34:37;26.70;99.90
37240;DHT22;23130;48.760;9.178;2023-08-21T05:37:03;27.20;99.90
37240;DHT22;23130;48.760;9.178;2023-08-21T05:39:29;28.10;99.90
37240;DHT22;23130;48.760;9.178;2023-08-21T05:41:54;28.40;99.90
37240;DHT22;23130;48.760;9.178;2023-08-21T05:44:20;28.70;99.90
37240;DHT22;23130;48.760;9.178;2023-08-21T05:46:46;29.40;99.90
37240;DHT22;23130;48.760;9.178;2023-08-21T05:49:12;29.50;99.90
37240;DHT22;23130;48.760;9.178;2023-08-21T05:51:38;29.70;99.90
37240;DHT22;23130;48.760;9.178;2023-08-21T05:54:04;30.00;99.90
37240;DHT22;23130;48.760;9.178;2023-08-21T05:56:29;30.30;99.90
37240;DHT22;23130;48.760;9.178;2023-08-21T05:58:55;30.70;99.90
37240;DHT22;23130;48.760;9.178;2023-08-21T06:01:20;31.10;99.90
37240;DHT22;23130;48.760;9.178;2023-08-21T06:03:47;31.50;99.90
37240;DHT22;23130;48.760;9.178;2023-08-21T06:06:13;31.80;99.90
37240;DHT22;23130;48.760;9.178;2023-08-21T06:08:38;31.80;99.90
37240;DHT22;23130;48.760;9.178;2023-08-21T06:11:05;31.60;99.90
37240;DHT22;23130;48.760;9.178;2023-08-21T06:13:32;31.60;99.90
37240;DHT22;23130;48.760;9.178;2023-08-21T06:15:57;32.00;99.90
37240;DHT22;23130;48.760;9.178;2023-08-21T06:18:23;32.10;99.90
37240;DHT22;23130;48.760;9.178;2023-08-21T06:20:49;32.00;99.90
37240;DHT22;23130;48.760;9.178;2023-08-21T06:23:23;31.60;99.90
37240;DHT22;23130;48.760;9.178;2023-08-21T06:25:49;32.20;99.90
37240;DHT22;23130;48.760;9.178;2023-08-21T06:28:16;32.20;99.90
37240;DHT22;23130;48.760;9.178;2023-08-21T06:30:42;32.60;99.90
37240;DHT22;23130;48.760;9.178;2023-08-21T06:33:08;32.60;99.90
37240;DHT22;23130;48.760;9.178;2023-08-21T06:35:37;32.90;99.90
37240;DHT22;23130;48.760;9.178;2023-08-21T06:38:03;33.00;99.90
37240;DHT22;23130;48.760;9.178;2023-08-21T06:40:29;33.40;99.90
37240;DHT22;23130;48.760;9.178;2023-08-21T06:42:56;33.60;99.90
37240;DHT22;23130;48.760;9.178;2023-08-21T06:45:21;33.80;99.90
37240;DHT22;23130;48.760;9.178;2023-08-21T06:47:47;33.70;99.90
37240;DHT22;23130;48.760;9.178;2023-08-21T06:50:13;33.90;99.90
37240;DHT22;23130;48.760;9.178;2023-08-21T06:52:39;33.10;99.90
37240;DHT22;23130;48.760;9.178;2023-08-21T06:55:05;33.50;99.90
37240;DHT22;23130;48.760;9.178;2023-08-21T06:57:30;33.60;99.90
37240;DHT22;23130;48.760;9.178;2023-08-21T06:59:58;33.60;99.90
37240;DHT22;23130;48.760;9.178;2023-08-21T07:02:23;33.70;99.90
37240;DHT22;23130;48.760;9.178;2023-08-21T07:04:50;33.60;99.90
37240;DHT22;23130;48.760;9.178;2023-08-21T07:07:16;34.20;99.90
37240;DHT22;23130;48.760;9.178;2023-08-21T07:09:41;34.50;99.90
37240;DHT22;23130;48.760;9.178;2023-08-21T07:12:07;34.30;99.90
37240;DHT22;23130;48.760;9.178;2023-08-21T07:14:32;34.50;99.90
37240;DHT22;23130;48.760;9.178;2023-08-21T07:16:58;34.20;99.90
37240;DHT22;23130;48.760;9.178;2023-08-21T07:19:23;33.90;99.90
37240;DHT22;23130;48.760;9.178;2023-08-21T07:21:49;33.80;99.90
37240;DHT22;23130;48.760;9.178;2023-08-21T07:24:14;33.60;99.90
37240;DHT22;23130;48.760;9.178;2023-08-21T07:26:40;33.20;99.90
37240;DHT22;23130;48.760;9.178;2023-08-21T07:29:06;33.20;99.90
37240;DHT22;23130;48.760;9.178;2023-08-21T07:31:34;33.00;99.90
37240;DHT22;23130;48.760;9.178;2023-08-21T07:34:00;33.10;99.90
37240;DHT22;23130;48.760;9.178;2023-08-21T07:36:25;33.00;99.90
37240;DHT22;23130;48.760;9.178;2023-08-21T07:38:51;32.60;99.90
37240;DHT22;23130;48.760;9.178;2023-08-21T07:41:18;32.00;99.90
37240;DHT22;23130;48.760;9.178;2023-08-21T07:43:44;31.50;99.90
37240;DHT22;23130;48.760;9.178;2023-08-21T07:46:11;31.00;99.90
37240;DHT22;23130;48.760;9.178;2023-08-21T07:48:39;30.60;99.90
37240;DHT22;23130;48.760;9.178;2023-08-21T07:51:05;30.30;99.90
37240;DHT22;23130;48.760;9.178;2023-08-21T07:53:30;30.00;99.90
37240;DHT22;23130;48.760;9.178;2023-08-21T07:56:00;29.70;99.90
37240;DHT22;23130;48.760;9.178;2023-08-21T07:58:26;29.70;99.90
37240;DHT22;23130;48.760;9.178;2023-08-21T08:00:52;29.80;99.90
37240;DHT22;23130;48.760;9.178;2023-08-21T08:03:20;30.00;99.90
37240;DHT22;23130;48.760;9.178;2023-08-21T08:05:46;30.20;99.90
37240;DHT22;23130;48.760;9.178;2023-08-21T08:08:11;30.30;99.90
37240;DHT22;23130;48.760;9.178;2023-08-21T08:10:38;30.50;99.90
37240;DHT22;23130;48.760;9.178;2023-08-21T08:13:04;30.10;99.90
37240;DHT22;23130;48.760;9.178;2023-08-21T08:15:30;30.00;99.90
37240;DHT22;23130;48.760;9.178;2023-08-21T08:17:55;29.90;99.90
37240;DHT22;23130;48.760;9.178;2023-08-21T08:20:22;29.80;99.90
37240;DHT22;23130;48.760;9.178;2023-08-21T08:22:51;29.80;99.90
37240;DHT22;23130;48.760;9.178;2023-08-21T08:25:17;29.80;99.90
37240;DHT22;23130;48.760;9.178;2023-08-21T08:27:44;29.70;99.90
37240;DHT22;23130;48.760;9.178;2023-08-21T08:30:10;29.60;99.90
37240;DHT22;23130;48.760;9.178;2023-08-21T08:32:37;29.60;99.90
37240;DHT22;23130;48.760;9.178;2023-08-21T08:35:03;29.80;99.90
37240;DHT22;23130;48.760;9.178;2023-08-21T08:37:28;29.90;99.90
37240;DHT22;23130;48.760;9.178;2023-08-21T08:39:54;29.90;99.90
37240;DHT22;23130;48.760;9.178;2023-08-21T08:42:22;30.00;99.90
37240;DHT22;23130;48.760;9.178;2023-08-21T08:44:49;30.00;99.90
37240;DHT22;23130;48.760;9.178;2023-08-21T08:47:15;30.10;99.90
37240;DHT22;23130;48.760;9.178;2023-08-21T08:49:42;30.30;99.90
37240;DHT22;23130;48.760;9.178;2023-08-21T08:52:11;30.20;99.90
37240;DHT22;23130;48.760;9.178;2023-08-21T08:54:37;30.20;99.90
37240;DHT22;23130;48.760;9.178;2023-08-21T08:57:03;30.50;99.90
37240;DHT22;23130;48.760;9.178;2023-08-21T08:59:32;30.50;99.90
37240;DHT22;23130;48.760;9.178;2023-08-21T09:01:58;30.50;99.90
37240;DHT22;23130;48.760;9.178;2023-08-21T09:04:24;30.20;99.90
37240;DHT22;23130;48.760;9.178;2023-08-21T09:06:52;30.10;99.90
37240;DHT22;23130;48.760;9.178;2023-08-21T09:09:17;30.10;99.90
37240;DHT22;23130;48.760;9.178;2023-08-21T09:11:45;30.10;99.90
37240;DHT22;23130;48.760;9.178;2023-08-21T09:14:11;30.10;99.90
37240;DHT22;23130;48.760;9.178;2023-08-21T09:16:37;30.10;99.90
37240;DHT22;23130;48.760;9.178;2023-08-21T09:19:04;30.10;99.90
37240;DHT22;23130;48.760;9.178;2023-08-21T09:21:29;30.00;99.90
37240;DHT22;23130;48.760;9.178;2023-08-21T09:24:00;30.10;99.90
37240;DHT22;23130;48.760;9.178;2023-08-21T09:26:26;30.00;99.90
37240;DHT22;23130;48.760;9.178;2023-08-21T09:28:53;30.00;99.90
37240;DHT22;23130;48.760;9.178;2023-08-21T09:31:37;30.10;99.90
37240;DHT22;23130;48.760;9.178;2023-08-21T09:34:04;30.10;99.90
37240;DHT22;23130;48.760;9.178;2023-08-21T09:36:33;30.10;99.90
37240;DHT22;23130;48.760;9.178;2023-08-21T09:38:59;30.10;99.90
37240;DHT22;23130;48.760;9.178;2023-08-21T09:41:27;30.10;99.90
37240;DHT22;23130;48.760;9.178;2023-08-21T09:43:58;30.20;99.90
37240;DHT22;23130;48.760;9.178;2023-08-21T09:46:25;30.20;99.90
37240;DHT22;23130;48.760;9.178;2023-08-21T09:48:54;30.30;99.90
37240;DHT22;23130;48.760;9.178;2023-08-21T09:51:20;30.30;99.90
37240;DHT22;23130;48.760;9.178;2023-08-21T09:53:50;30.40;99.90
37240;DHT22;23130;48.760;9.178;2023-08-21T09:56:18;30.40;99.90
37240;DHT22;23130;48.760;9.178;2023-08-21T09:58:49;30.50;99.90
37240;DHT22;23130;48.760;9.178;2023-08-21T10:01:17;30.30;99.90
37240;DHT22;23130;48.760;9.178;2023-08-21T10:03:46;30.40;99.90
37240;DHT22;23130;48.760;9.178;2023-08-21T10:06:16;30.50;99.90
37240;DHT22;23130;48.760;9.178;2023-08-21T10:08:46;30.50;99.90
37240;DHT22;23130;48.760;9.178;2023-08-21T10:11:13;30.40;99.90
37240;DHT22;23130;48.760;9.178;2023-08-21T10:13:39;30.50;99.90
37240;DHT22;23130;48.760;9.178;2023-08-21T10:16:06;30.50;99.90
37240;DHT22;23130;48.760;9.178;2023-08-21T10:18:34;30.50;99.90
37240;DHT22;23130;48.760;9.178;2023-08-21T10:21:16;30.50;99.90
37240;DHT22;23130;48.760;9.178;2023-08-21T10:23:46;30.50;99.90
37240;DHT22;23130;48.760;9.178;2023-08-21T10:26:13;30.60;99.90
37240;DHT22;23130;48.760;9.178;2023-08-21T10:28:43;30.70;99.90
37240;DHT22;23130;48.760;9.178;2023-08-21T10:31:42;30.80;99.90
37240;DHT22;23130;48.760;9.178;2023-08-21T10:34:11;30.90;99.90
37240;DHT22;23130;48.760;9.178;2023-08-21T10:39:04;30.90;99.90
37240;DHT22;23130;48.760;9.178;2023-08-21T10:41:30;30.90;99.90
37240;DHT22;23130;48.760;9.178;2023-08-21T10:43:56;31.00;99.90
37240;DHT22;23130;48.760;9.178;2023-08-21T10:46:21;31.10;99.90
37240;DHT22;23130;48.760;9.178;2023-08-21T10:48:48;31.30;99.90
37240;DHT22;23130;48.760;9.178;2023-08-21T10:51:17;31.40;99.90
37240;DHT22;23130;48.760;9.178;2023-08-21T10:53:42;31.50;99.90
37240;DHT22;23130;48.760;9.178;2023-08-21T10:56:08;31.50;99.90
37240;DHT22;23130;48.760;9.178;2023-08-21T10:58:44;31.50;99.90
37240;DHT22;23130;48.760;9.178;2023-08-21T11:01:12;31.40;99.90
37240;DHT22;23130;48.760;9.178;2023-08-21T11:03:39;31.60;99.90
37240;DHT22;23130;48.760;9.178;2023-08-21T11:06:10;31.70;99.90
37240;DHT22;23130;48.760;9.178;2023-08-21T11:08:38;31.80;99.90
37240;DHT22;23130;48.760;9.178;2023-08-21T11:11:05;31.90;99.90
37240;DHT22;23130;48.760;9.178;2023-08-21T11:13:31;31.80;99.90
37240;DHT22;23130;48.760;9.178;2023-08-21T11:16:01;31.80;99.90
37240;DHT22;23130;48.760;9.178;2023-08-21T11:18:37;31.70;99.90
37240;DHT22;23130;48.760;9.178;2023-08-21T11:21:13;31.70;99.90
37240;DHT22;23130;48.760;9.178;2023-08-21T11:23:42;31.80;99.90
37240;DHT22;23130;48.760;9.178;2023-08-21T11:26:11;31.80;99.90
37240;DHT22;23130;48.760;9.178;2023-08-21T11:28:38;31.70;99.90
37240;DHT22;23130;48.760;9.178;2023-08-21T11:31:04;31.60;99.90
37240;DHT22;23130;48.760;9.178;2023-08-21T11:33:31;31.60;99.90
37240;DHT22;23130;48.760;9.178;2023-08-21T11:35:56;31.70;99.90
37240;DHT22;23130;48.760;9.178;2023-08-21T11:38:26;31.90;99.90
37240;DHT22;23130;48.760;9.178;2023-08-21T11:41:02;32.00;99.90
37240;DHT22;23130;48.760;9.178;2023-08-21T11:46:03;32.30;99.90
37240;DHT22;23130;48.760;9.178;2023-08-21T11:48:29;32.20;99.90
37240;DHT22;23130;48.760;9.178;2023-08-21T11:50:55;32.20;99.90
37240;DHT22;23130;48.760;9.178;2023-08-21T11:53:35;32.30;99.90
37240;DHT22;23130;48.760;9.178;2023-08-21T11:56:02;32.40;99.90
37240;DHT22;23130;48.760;9.178;2023-08-21T11:58:28;32.50;99.90
37240;DHT22;23130;48.760;9.178;2023-08-21T12:00:54;32.60;99.90
37240;DHT22;23130;48.760;9.178;2023-08-21T12:03:26;32.80;99.90
37240;DHT22;23130;48.760;9.178;2023-08-21T12:05:51;32.80;99.90
37240;DHT22;23130;48.760;9.178;2023-08-21T12:08:17;32.80;99.90
37240;DHT22;23130;48.760;9.178;2023-08-21T12:10:43;33.00;99.90
37240;DHT22;23130;48.760;9.178;2023-08-21T12:13:08;32.90;99.90
37240;DHT22;23130;48.760;9.178;2023-08-21T12:15:34;32.80;99.90
37240;DHT22;23130;48.760;9.178;2023-08-21T12:17:59;32.60;99.90
37240;DHT22;23130;48.760;9.178;2023-08-21T12:20:25;32.60;99.90
37240;DHT22;23130;48.760;9.178;2023-08-21T12:22:50;32.50;99.90
37240;DHT22;23130;48.760;9.178;2023-08-21T12:25:17;32.40;99.90
37240;DHT22;23130;48.760;9.178;2023-08-21T12:27:43;32.40;99.90
37240;DHT22;23130;48.760;9.178;2023-08-21T12:30:10;32.30;99.90
37240;DHT22;23130;48.760;9.178;2023-08-21T12:32:36;32.30;99.90
37240;DHT22;23130;48.760;9.178;2023-08-21T12:35:01;32.00;99.90
37240;DHT22;23130;48.760;9.178;2023-08-21T12:37:31;31.90;99.90
37240;DHT22;23130;48.760;9.178;2023-08-21T12:39:57;31.80;99.90
37240;DHT22;23130;48.760;9.178;2023-08-21T12:42:22;32.00;99.90
37240;DHT22;23130;48.760;9.178;2023-08-21T12:44:48;32.00;99.90
37240;DHT22;23130;48.760;9.178;2023-08-21T12:47:14;32.10;99.90
37240;DHT22;23130;48.760;9.178;2023-08-21T12:49:39;32.20;99.90
37240;DHT22;23130;48.760;9.178;2023-08-21T12:52:05;32.40;99.90
37240;DHT22;23130;48.760;9.178;2023-08-21T12:54:32;32.50;99.90
37240;DHT22;23130;48.760;9.178;2023-08-21T12:56:57;32.70;99.90
37240;DHT22;23130;48.760;9.178;2023-08-21T12:59:23;33.00;99.90
37240;DHT22;23130;48.760;9.178;2023-08-21T13:01:48;33.20;99.90
37240;DHT22;23130;48.760;9.178;2023-08-21T13:04:14;33.20;99.90
37240;DHT22;23130;48.760;9.178;2023-08-21T13:06:39;33.30;99.90
37240;DHT22;23130;48.760;9.178;2023-08-21T13:09:07;33.10;99.90
37240;DHT22;23130;48.760;9.178;2023-08-21T13:11:33;33.10;99.90
37240;DHT22;23130;48.760;9.178;2023-08-21T13:13:58;33.30;99.90
37240;DHT22;23130;48.760;9.178;2023-08-21T13:16:24;33.40;99.90
37240;DHT22;23130;48.760;9.178;2023-08-21T13:18:49;33.50;99.90
37240;DHT22;23130;48.760;9.178;2023-08-21T13:21:15;33.40;99.70
37240;DHT22;23130;48.760;9.178;2023-08-21T13:23:40;33.50;99.90
37240;DHT22;23130;48.760;9.178;2023-08-21T13:26:06;33.60;99.90
37240;DHT22;23130;48.760;9.178;2023-08-21T13:28:32;33.50;99.90
37240;DHT22;23130;48.760;9.178;2023-08-21T13:30:57;33.40;99.70
37240;DHT22;23130;48.760;9.178;2023-08-21T13:33:23;33.20;99.90
37240;DHT22;23130;48.760;9.178;2023-08-21T13:35:49;33.00;99.90
37240;DHT22;23130;48.760;9.178;2023-08-21T13:38:14;32.90;99.90
37240;DHT22;23130;48.760;9.178;2023-08-21T13:40:40;32.90;99.90
37240;DHT22;23130;48.760;9.178;2023-08-21T13:43:06;33.00;99.90
37240;DHT22;23130;48.760;9.178;2023-08-21T13:45:33;33.20;99.90
37240;DHT22;23130;48.760;9.178;2023-08-21T13:48:00;33.20;99.80
37240;DHT22;23130;48.760;9.178;2023-08-21T13:50:25;33.20;99.90
37240;DHT22;23130;48.760;9.178;2023-08-21T13:52:51;33.10;99.90
37240;DHT22;23130;48.760;9.178;2023-08-21T13:55:17;33.10;99.90
37240;DHT22;23130;48.760;9.178;2023-08-21T13:57:43;33.20;99.90
37240;DHT22;23130;48.760;9.178;2023-08-21T14:00:10;33.40;99.70
37240;DHT22;23130;48.760;9.178;2023-08-21T14:02:40;33.40;99.90
37240;DHT22;23130;48.760;9.178;2023-08-21T14:05:06;33.40;99.90
37240;DHT22;23130;48.760;9.178;2023-08-21T14:07:33;33.40;99.90
37240;DHT22;23130;48.760;9.178;2023-08-21T14:09:59;33.30;99.90
37240;DHT22;23130;48.760;9.178;2023-08-21T14:12:24;33.20;99.90
37240;DHT22;23130;48.760;9.178;2023-08-21T14:14:50;33.10;99.90
37240;DHT22;23130;48.760;9.178;2023-08-21T14:17:16;33.10;99.90
37240;DHT22;23130;48.760;9.178;2023-08-21T14:19:43;33.10;99.90
37240;DHT22;23130;48.760;9.178;2023-08-21T14:22:08;33.10;99.90
37240;DHT22;23130;48.760;9.178;2023-08-21T14:24:34;33.00;99.90
37240;DHT22;23130;48.760;9.178;2023-08-21T14:26:59;33.10;99.90
37240;DHT22;23130;48.760;9.178;2023-08-21T14:29:25;33.20;99.90
37240;DHT22;23130;48.760;9.178;2023-08-21T14:31:51;33.40;99.90
37240;DHT22;23130;48.760;9.178;2023-08-21T14:34:19;33.20;99.50
37240;DHT22;23130;48.760;9.178;2023-08-21T14:36:47;33.20;99.70
37240;DHT22;23130;48.760;9.178;2023-08-21T14:39:13;32.80;99.90
37240;DHT22;23130;48.760;9.178;2023-08-21T14:41:40;32.80;99.90
37240;DHT22;23130;48.760;9.178;2023-08-21T14:44:06;32.70;99.90
37240;DHT22;23130;48.760;9.178;2023-08-21T14:46:32;32.70;99.90
37240;DHT22;23130;48.760;9.178;2023-08-21T14:48:58;32.70;99.90
37240;DHT22;23130;48.760;9.178;2023-08-21T14:51:23;32.60;99.90
37240;DHT22;23130;48.760;9.178;2023-08-21T14:53:49;32.60;99.90
37240;DHT22;23130;48.760;9.178;2023-08-21T14:56:14;32.60;99.90
37240;DHT22;23130;48.760;9.178;2023-08-21T14:58:40;32.50;99.90
37240;DHT22;23130;48.760;9.178;2023-08-21T15:01:09;32.40;99.90
37240;DHT22;23130;48.760;9.178;2023-08-21T15:03:36;32.40;99.90
37240;DHT22;23130;48.760;9.178;2023-08-21T15:06:01;32.50;99.90
37240;DHT22;23130;48.760;9.178;2023-08-21T15:08:28;32.50;99.90
37240;DHT22;23130;48.760;9.178;2023-08-21T15:10:53;32.50;99.90
37240;DHT22;23130;48.760;9.178;2023-08-21T15:13:19;32.70;99.90
37240;DHT22;23130;48.760;9.178;2023-08-21T15:15:44;32.80;99.90
37240;DHT22;23130;48.760;9.178;2023-08-21T15:18:12;32.80;99.90
37240;DHT22;23130;48.760;9.178;2023-08-21T15:20:37;32.50;99.90
37240;DHT22;23130;48.760;9.178;2023-08-21T15:23:03;32.40;99.90
37240;DHT22;23130;48.760;9.178;2023-08-21T15:25:29;32.40;99.90
37240;DHT22;23130;48.760;9.178;2023-08-21T15:27:54;32.30;99.90
37240;DHT22;23130;48.760;9.178;2023-08-21T15:30:20;32.40;99.90
37240;DHT22;23130;48.760;9.178;2023-08-21T15:32:45;32.30;99.90
37240;DHT22;23130;48.760;9.178;2023-08-21T15:35:13;32.20;99.90
37240;DHT22;23130;48.760;9.178;2023-08-21T15:37:39;32.10;99.90
37240;DHT22;23130;48.760;9.178;2023-08-21T15:40:06;32.10;99.90